x

North Hecate Strait (46183) Wave Buoy

10:00pm - Mon 1st Sep 2014 All times are PDT. -7 hours from GMT.

  • Sig Wave height 2.3ft
  • Peak Period 10s
  • Wind
  • Sea Temp 57°f
  • Air Temp 57°f
  • Sea Pressure 1014.2mb
  • North Hecate Strait
  • North Hecate Strait

More Historic Weather Station data

Upgrade to MSW Pro to gain access to the past 30 days of data for over 8000 Wavebouys and Weather Stations around the globe.

Join Pro

Comparision Forecast

View Surf forecast
   
Mon 09/01 10:00pm 2.5ft 10s  -  2 mph 1014.2mb 57f 57f
9:00pm 2.5ft 11s 2 4 mph 1014.2mb 57f 58f
8:00pm 2.5ft 4s 2 4 mph 1014mb 57f 58f
7:00pm 2.5ft 3s 4
mph
1014.1mb 58f 58f
6:00pm 2ft 11s 9 13 mph 1014.1mb 58f 57f
5:00pm 2ft 10s 4 11 mph 1014.2mb 58f 56f
4:00pm 2ft 10s 4
mph
1014mb 58f 58f
3:00pm 2ft 6s 2 4 mph 1013.9mb 58f 56f
2:00pm 2.5ft 6s 7 9 mph 1013.5mb 58f 59f
1:00pm 2.5ft 7s 11 13 mph 1013mb 57f 59f
12:00pm 2.5ft 6s 11 13 mph 1012.7mb 57f 59f
11:00am 2.5ft 6s 13 18 mph 1012.3mb 57f 58f
10:00am 2.5ft 6s 11 13 mph 1012.1mb 57f 58f
9:00am 3ft 7s 13 16 mph 1011.8mb 57f 58f
8:00am 3ft 7s 9 11 mph 1011.5mb 57f 58f
7:00am 3.5ft 7s 9
mph
1011.3mb 57f 58f
6:00am 3.5ft 7s 18 22 mph 1010.9mb 57f 57f
5:00am 3.5ft 7s 11 13 mph 1010.6mb 57f 58f
4:00am 3.5ft 6s 11 13 mph 1010.4mb 57f 58f
3:00am 3.5ft 7s 11 13 mph 1010.2mb 57f 59f
2:00am 3.5ft 6s 16 20 mph 1009.7mb 58f 59f
1:00am 3.5ft 7s 13 16 mph 1009.3mb 57f 59f
12:00am 3.5ft 7s 11 13 mph 1008.8mb 57f 59f
Sun 08/31 11:00pm 3.5ft 6s 11 13 mph 1008.2mb 57f 59f
10:00pm 4ft 6s 13 16 mph 1007.6mb 57f 59f
9:00pm 4.5ft 7s 11 13 mph 1007.1mb 58f 58f
8:00pm 5ft 6s 11 13 mph 1006.8mb 58f 59f
7:00pm 5.5ft 6s 16 22 mph 1006.4mb 58f 58f
6:00pm  -   -  25
mph
- - -
5:00pm 6ft 5s 29 36 mph 1005.9mb 58f 56f
3:00pm 4.5ft 5s 25 29 mph 1007.9mb 58f 56f
2:00pm 4.5ft 5s 25 31 mph 1008.6mb 58f 56f
1:00pm 4ft 4s 20 25 mph 1009.3mb 58f 58f
12:00pm 3.5ft 12s 20 27 mph 1009.6mb 58f 58f
11:00am 3.5ft 4s 20 25 mph 1009.9mb 58f 57f
10:00am 2.5ft 4s 22 27 mph 1009.8mb 58f 58f
9:00am 2ft 14s 20 25 mph 1010.3mb 58f 58f
8:00am 2ft 12s 16 18 mph 1010.6mb 58f 58f
7:00am 1.6ft 14s 16 18 mph 1010.6mb 59f 58f
6:00am 1.6ft 14s 13 16 mph 1010.9mb 59f 58f
5:00am 2ft 13s 11
mph
1011.4mb 59f 58f
4:00am 1.6ft 14s 9 11 mph 1011.8mb 59f 58f
3:00am 1.6ft 12s 7 9 mph 1012mb 59f 59f
2:00am 1.6ft 12s 7 9 mph 1012.1mb 60f 59f
1:00am 2ft 12s 7
mph
1012.3mb 60f 58f
12:00am 1.6ft 12s 4
mph
1012.3mb 60f 58f
Sat 08/30 11:00pm 1.6ft 13s  -  2 mph 1012.3mb 60f 58f
10:00pm 1.6ft 12s 4
mph
1012mb 59f 58f
9:00pm 2ft 14s 4
mph
1011.5mb 59f 58f
8:00pm 2ft 13s 9 11 mph 1011mb 59f 57f
7:00pm 2ft 13s 4
mph
1010.7mb 59f 58f
6:00pm 2.5ft 14s 13 16 mph 1010.5mb 59f 58f
5:00pm 2.5ft 12s 9
mph
1010.3mb 59f 59f
4:00pm 2.5ft 12s 4 7 mph 1010.3mb 59f 58f
3:00pm 2.5ft 13s 7 9 mph 1010mb 59f 58f
2:00pm 2.5ft 13s 9 11 mph 1009.8mb 60f 58f
1:00pm 2.5ft 6s 9 13 mph 1009.6mb 60f 59f
12:00pm 2.5ft 6s 4 7 mph 1009.2mb 60f 59f
11:00am 2.5ft 7s 4
mph
1008.7mb 59f 59f
10:00am 2.5ft 7s 4 7 mph 1008.3mb 59f 59f
9:00am 3ft 7s 4 7 mph 1007.7mb 58f 59f
8:00am 3.5ft 7s 7 9 mph 1007.1mb 58f 58f
7:00am 3.5ft 7s 7 9 mph 1006.6mb 58f 58f
6:00am 3.5ft 7s 9 11 mph 1006mb 58f 57f
5:00am 3.5ft 14s 11 13 mph 1005.5mb 58f 57f
4:00am 3.5ft 14s 11 13 mph 1005.3mb 58f 57f
3:00am 3.5ft 14s 9 11 mph 1005.2mb 58f 58f
2:00am 4ft 6s 13 16 mph 1005.3mb 59f 57f
1:00am 4ft 6s 13 18 mph 1005.1mb 59f 58f
12:00am 3.5ft 7s 16 18 mph 1005.1mb 59f 58f
Fri 08/29 11:00pm 4ft 7s 16 18 mph 1005.1mb 59f 58f
10:00pm 4.5ft 7s 16 20 mph 1005mb 59f 58f
8:00pm 3.5ft 6s 18 22 mph 1004.6mb 58f 59f
7:00pm 4ft 5s 18 22 mph 1004.5mb 58f 58f
6:00pm 4ft 6s 20 25 mph 1004.6mb 58f 59f
5:00pm 4ft 6s 20 25 mph 1004.5mb 58f 59f
4:00pm 4ft 5s 18 22 mph 1004.5mb 58f 59f
3:00pm 4ft 5s 18 22 mph 1004.5mb 58f 59f
2:00pm 3.5ft 5s 20 22 mph 1004.8mb 59f 59f
1:00pm 3.5ft 5s 18 22 mph 1004.8mb 59f 59f
12:00pm 3.5ft 5s 16 18 mph 1005.1mb 59f 59f
11:00am 4ft 5s 13 18 mph 1005.5mb 59f 58f
10:00am 4.5ft 6s 18 20 mph 1005.7mb 59f 58f
9:00am 4.5ft 6s 20 25 mph 1005.9mb 59f 58f
8:00am 5ft 6s 20 25 mph 1006.1mb 59f 58f
7:00am 5ft 6s 22 27 mph 1006.3mb 58f 57f